sensor_id;sensor_type;location;lat;lon;timestamp;pressure;altitude;pressure_sealevel;temperature;humidity
42001;BME280;27689;48.390;10.856;2023-03-25T00:02:44;95574.38;;;8.38;98.85
42001;BME280;27689;48.390;10.856;2023-03-25T00:05:28;95573.56;;;8.37;98.50
42001;BME280;27689;48.390;10.856;2023-03-25T00:08:14;95572.63;;;8.56;97.34
42001;BME280;27689;48.390;10.856;2023-03-25T00:10:59;95576.94;;;8.47;97.37
42001;BME280;27689;48.390;10.856;2023-03-25T00:13:44;95571.41;;;8.51;97.76
42001;BME280;27689;48.390;10.856;2023-03-25T00:16:28;95578.13;;;8.53;97.28
42001;BME280;27689;48.390;10.856;2023-03-25T00:19:11;95573.16;;;8.60;96.57
42001;BME280;27689;48.390;10.856;2023-03-25T00:21:56;95566.94;;;8.61;96.21
42001;BME280;27689;48.390;10.856;2023-03-25T00:24:39;95564.66;;;8.58;96.84
42001;BME280;27689;48.390;10.856;2023-03-25T00:27:23;95566.06;;;8.52;96.60
42001;BME280;27689;48.390;10.856;2023-03-25T00:30:08;95567.16;;;8.49;97.13
42001;BME280;27689;48.390;10.856;2023-03-25T00:32:52;95564.13;;;8.54;96.70
42001;BME280;27689;48.390;10.856;2023-03-25T00:35:37;95555.72;;;8.60;96.23
42001;BME280;27689;48.390;10.856;2023-03-25T00:38:24;95550.09;;;8.55;96.08
42001;BME280;27689;48.390;10.856;2023-03-25T00:41:21;95552.34;;;8.68;95.06
42001;BME280;27689;48.390;10.856;2023-03-25T00:44:10;95552.41;;;8.76;94.30
42001;BME280;27689;48.390;10.856;2023-03-25T00:46:55;95540.56;;;8.81;92.78
42001;BME280;27689;48.390;10.856;2023-03-25T00:49:39;95537.50;;;8.86;92.91
42001;BME280;27689;48.390;10.856;2023-03-25T00:52:23;95548.25;;;8.83;93.26
42001;BME280;27689;48.390;10.856;2023-03-25T00:55:08;95544.94;;;8.81;92.75
42001;BME280;27689;48.390;10.856;2023-03-25T00:57:52;95546.69;;;8.90;91.97
42001;BME280;27689;48.390;10.856;2023-03-25T01:00:36;95555.31;;;8.91;91.48
42001;BME280;27689;48.390;10.856;2023-03-25T01:03:19;95545.19;;;8.88;92.42
42001;BME280;27689;48.390;10.856;2023-03-25T01:06:09;95546.69;;;8.90;91.33
42001;BME280;27689;48.390;10.856;2023-03-25T01:08:58;95543.75;;;8.93;91.12
42001;BME280;27689;48.390;10.856;2023-03-25T01:11:44;95540.97;;;8.95;90.37
42001;BME280;27689;48.390;10.856;2023-03-25T01:14:29;95537.19;;;8.89;90.13
42001;BME280;27689;48.390;10.856;2023-03-25T01:17:13;95538.47;;;8.85;90.67
42001;BME280;27689;48.390;10.856;2023-03-25T01:19:56;95528.47;;;8.80;90.92
42001;BME280;27689;48.390;10.856;2023-03-25T01:22:40;95530.88;;;8.74;90.56
42001;BME280;27689;48.390;10.856;2023-03-25T01:25:24;95520.91;;;8.77;90.45
42001;BME280;27689;48.390;10.856;2023-03-25T01:28:08;95518.44;;;8.76;90.40
42001;BME280;27689;48.390;10.856;2023-03-25T01:31:04;95530.03;;;8.73;90.45
42001;BME280;27689;48.390;10.856;2023-03-25T01:33:48;95523.03;;;8.74;90.36
42001;BME280;27689;48.390;10.856;2023-03-25T01:36:32;95525.84;;;8.80;89.91
42001;BME280;27689;48.390;10.856;2023-03-25T01:39:18;95513.63;;;8.81;89.55
42001;BME280;27689;48.390;10.856;2023-03-25T01:42:03;95509.44;;;8.70;90.14
42001;BME280;27689;48.390;10.856;2023-03-25T01:47:35;95517.19;;;8.80;89.52
42001;BME280;27689;48.390;10.856;2023-03-25T01:50:20;95501.81;;;8.77;88.99
42001;BME280;27689;48.390;10.856;2023-03-25T01:53:05;95503.16;;;8.81;88.75
42001;BME280;27689;48.390;10.856;2023-03-25T01:55:50;95506.59;;;8.81;88.76
42001;BME280;27689;48.390;10.856;2023-03-25T01:58:35;95510.84;;;8.82;89.24
42001;BME280;27689;48.390;10.856;2023-03-25T02:01:20;95502.34;;;8.80;88.61
42001;BME280;27689;48.390;10.856;2023-03-25T02:04:04;95503.97;;;8.81;88.55
42001;BME280;27689;48.390;10.856;2023-03-25T02:06:56;95516.13;;;8.91;87.69
42001;BME280;27689;48.390;10.856;2023-03-25T02:09:41;95518.41;;;8.86;88.51
42001;BME280;27689;48.390;10.856;2023-03-25T02:12:25;95520.75;;;8.97;88.41
42001;BME280;27689;48.390;10.856;2023-03-25T02:15:09;95519.06;;;8.88;89.85
42001;BME280;27689;48.390;10.856;2023-03-25T02:18:25;95512.44;;;8.75;92.13
42001;BME280;27689;48.390;10.856;2023-03-25T02:39:45;95504.59;;;8.75;92.20
42001;BME280;27689;48.390;10.856;2023-03-25T02:42:40;95507.56;;;8.80;91.00
42001;BME280;27689;48.390;10.856;2023-03-25T02:45:41;95520.41;;;8.74;90.29
42001;BME280;27689;48.390;10.856;2023-03-25T02:48:37;95511.66;;;8.83;89.66
42001;BME280;27689;48.390;10.856;2023-03-25T02:51:27;95507.94;;;8.68;90.32
42001;BME280;27689;48.390;10.856;2023-03-25T02:54:14;95514.53;;;8.72;90.30
42001;BME280;27689;48.390;10.856;2023-03-25T02:56:59;95509.00;;;8.75;90.17
42001;BME280;27689;48.390;10.856;2023-03-25T02:59:45;95510.13;;;8.72;89.91
42001;BME280;27689;48.390;10.856;2023-03-25T03:02:31;95508.25;;;8.65;92.43
42001;BME280;27689;48.390;10.856;2023-03-25T03:05:26;95505.63;;;8.47;93.79
42001;BME280;27689;48.390;10.856;2023-03-25T03:11:27;95507.50;;;8.37;93.84
42001;BME280;27689;48.390;10.856;2023-03-25T03:20:36;95508.69;;;7.97;95.06
42001;BME280;27689;48.390;10.856;2023-03-25T03:23:30;95516.50;;;7.97;94.57
42001;BME280;27689;48.390;10.856;2023-03-25T03:29:19;95512.94;;;7.98;93.31
42001;BME280;27689;48.390;10.856;2023-03-25T03:32:31;95512.78;;;8.00;93.12
42001;BME280;27689;48.390;10.856;2023-03-25T03:35:32;95519.25;;;7.96;93.14
42001;BME280;27689;48.390;10.856;2023-03-25T03:38:23;95513.91;;;7.97;92.86
42001;BME280;27689;48.390;10.856;2023-03-25T03:41:10;95509.72;;;8.04;92.37
42001;BME280;27689;48.390;10.856;2023-03-25T03:43:59;95530.84;;;8.11;91.61
42001;BME280;27689;48.390;10.856;2023-03-25T03:46:50;95528.53;;;8.08;91.76
42001;BME280;27689;48.390;10.856;2023-03-25T03:49:41;95541.84;;;8.05;93.56
42001;BME280;27689;48.390;10.856;2023-03-25T03:52:36;95539.03;;;7.98;94.26
42001;BME280;27689;48.390;10.856;2023-03-25T03:55:26;95539.53;;;8.02;95.07
42001;BME280;27689;48.390;10.856;2023-03-25T03:58:21;95534.38;;;7.92;95.17
42001;BME280;27689;48.390;10.856;2023-03-25T04:04:14;95549.06;;;7.93;95.05
42001;BME280;27689;48.390;10.856;2023-03-25T04:07:17;95552.75;;;8.00;94.32
42001;BME280;27689;48.390;10.856;2023-03-25T04:10:09;95553.94;;;8.06;94.40
42001;BME280;27689;48.390;10.856;2023-03-25T04:12:59;95557.34;;;8.06;94.59
42001;BME280;27689;48.390;10.856;2023-03-25T04:15:44;95547.53;;;8.18;92.88
42001;BME280;27689;48.390;10.856;2023-03-25T04:18:28;95554.34;;;8.01;92.55
42001;BME280;27689;48.390;10.856;2023-03-25T04:21:16;95543.34;;;8.07;92.89
42001;BME280;27689;48.390;10.856;2023-03-25T04:24:00;95548.16;;;8.02;92.95
42001;BME280;27689;48.390;10.856;2023-03-25T04:26:45;95549.00;;;8.03;91.52
42001;BME280;27689;48.390;10.856;2023-03-25T04:29:32;95545.88;;;7.99;91.96
42001;BME280;27689;48.390;10.856;2023-03-25T04:32:16;95544.09;;;8.00;92.43
42001;BME280;27689;48.390;10.856;2023-03-25T04:35:00;95539.50;;;7.84;94.07
42001;BME280;27689;48.390;10.856;2023-03-25T04:37:45;95542.25;;;7.83;93.97
42001;BME280;27689;48.390;10.856;2023-03-25T04:40:31;95544.94;;;7.91;94.29
42001;BME280;27689;48.390;10.856;2023-03-25T04:43:16;95530.41;;;7.88;95.91
42001;BME280;27689;48.390;10.856;2023-03-25T04:46:00;95541.28;;;7.84;96.73
42001;BME280;27689;48.390;10.856;2023-03-25T04:48:45;95540.81;;;7.88;96.95
42001;BME280;27689;48.390;10.856;2023-03-25T04:51:31;95536.97;;;7.92;97.39
42001;BME280;27689;48.390;10.856;2023-03-25T04:54:16;95561.59;;;7.80;97.30
42001;BME280;27689;48.390;10.856;2023-03-25T04:57:00;95543.50;;;7.78;97.50
42001;BME280;27689;48.390;10.856;2023-03-25T04:59:44;95543.34;;;7.80;96.00
42001;BME280;27689;48.390;10.856;2023-03-25T05:02:28;95570.47;;;7.87;95.20
42001;BME280;27689;48.390;10.856;2023-03-25T05:05:14;95567.78;;;7.79;95.24
42001;BME280;27689;48.390;10.856;2023-03-25T05:08:01;95558.44;;;7.76;94.93
42001;BME280;27689;48.390;10.856;2023-03-25T05:10:46;95564.50;;;7.77;94.64
42001;BME280;27689;48.390;10.856;2023-03-25T05:13:31;95568.31;;;7.83;94.77
42001;BME280;27689;48.390;10.856;2023-03-25T05:16:14;95569.66;;;7.87;94.62
42001;BME280;27689;48.390;10.856;2023-03-25T05:18:59;95571.25;;;7.70;95.03
42001;BME280;27689;48.390;10.856;2023-03-25T05:21:43;95573.28;;;7.76;94.83
42001;BME280;27689;48.390;10.856;2023-03-25T05:24:27;95583.16;;;7.72;95.23
42001;BME280;27689;48.390;10.856;2023-03-25T05:27:11;95583.19;;;7.63;95.82
42001;BME280;27689;48.390;10.856;2023-03-25T05:29:56;95579.22;;;7.59;95.94
42001;BME280;27689;48.390;10.856;2023-03-25T05:32:43;95579.63;;;7.64;95.29
42001;BME280;27689;48.390;10.856;2023-03-25T05:35:28;95571.63;;;7.75;93.60
42001;BME280;27689;48.390;10.856;2023-03-25T05:38:12;95571.91;;;7.72;93.20
42001;BME280;27689;48.390;10.856;2023-03-25T05:41:01;95575.19;;;7.74;93.42
42001;BME280;27689;48.390;10.856;2023-03-25T05:43:45;95581.91;;;7.76;93.24
42001;BME280;27689;48.390;10.856;2023-03-25T05:46:30;95579.16;;;7.78;92.30
42001;BME280;27689;48.390;10.856;2023-03-25T05:49:14;95591.66;;;7.74;92.00
42001;BME280;27689;48.390;10.856;2023-03-25T05:51:58;95587.28;;;7.75;92.81
42001;BME280;27689;48.390;10.856;2023-03-25T05:54:44;95581.53;;;7.71;92.17
42001;BME280;27689;48.390;10.856;2023-03-25T05:57:28;95578.63;;;7.74;92.03
42001;BME280;27689;48.390;10.856;2023-03-25T06:00:13;95589.78;;;7.67;92.03
42001;BME280;27689;48.390;10.856;2023-03-25T06:02:58;95594.72;;;7.70;92.12
42001;BME280;27689;48.390;10.856;2023-03-25T06:05:42;95585.94;;;7.71;90.95
42001;BME280;27689;48.390;10.856;2023-03-25T06:08:27;95604.00;;;7.72;89.80
42001;BME280;27689;48.390;10.856;2023-03-25T06:11:12;95603.06;;;7.73;89.57
42001;BME280;27689;48.390;10.856;2023-03-25T06:13:56;95605.41;;;7.67;89.18
42001;BME280;27689;48.390;10.856;2023-03-25T06:16:40;95601.44;;;7.63;88.79
42001;BME280;27689;48.390;10.856;2023-03-25T06:19:26;95610.22;;;7.62;88.47
42001;BME280;27689;48.390;10.856;2023-03-25T06:22:10;95609.66;;;7.68;87.91
42001;BME280;27689;48.390;10.856;2023-03-25T06:24:55;95622.84;;;7.66;88.04
42001;BME280;27689;48.390;10.856;2023-03-25T06:27:39;95613.38;;;7.65;87.94
42001;BME280;27689;48.390;10.856;2023-03-25T06:30:23;95619.56;;;7.64;87.03
42001;BME280;27689;48.390;10.856;2023-03-25T06:33:06;95633.69;;;7.62;86.64
42001;BME280;27689;48.390;10.856;2023-03-25T06:35:53;95636.97;;;7.64;86.24
42001;BME280;27689;48.390;10.856;2023-03-25T06:38:38;95640.69;;;7.61;85.42
42001;BME280;27689;48.390;10.856;2023-03-25T06:41:22;95640.56;;;7.53;84.90
42001;BME280;27689;48.390;10.856;2023-03-25T06:44:07;95640.84;;;7.50;85.14
42001;BME280;27689;48.390;10.856;2023-03-25T06:46:52;95645.50;;;7.47;85.57
42001;BME280;27689;48.390;10.856;2023-03-25T06:49:36;95660.75;;;7.41;86.39
42001;BME280;27689;48.390;10.856;2023-03-25T06:52:20;95664.72;;;7.46;86.10
42001;BME280;27689;48.390;10.856;2023-03-25T06:55:04;95675.66;;;7.59;85.64
42001;BME280;27689;48.390;10.856;2023-03-25T06:57:48;95668.53;;;7.70;84.71
42001;BME280;27689;48.390;10.856;2023-03-25T07:00:32;95667.56;;;7.71;84.82
42001;BME280;27689;48.390;10.856;2023-03-25T07:03:16;95681.13;;;7.85;84.23
42001;BME280;27689;48.390;10.856;2023-03-25T07:06:00;95676.56;;;7.87;84.03
42001;BME280;27689;48.390;10.856;2023-03-25T07:08:45;95679.56;;;8.01;83.36
42001;BME280;27689;48.390;10.856;2023-03-25T07:11:31;95680.50;;;8.10;83.06
42001;BME280;27689;48.390;10.856;2023-03-25T07:14:16;95686.28;;;8.13;82.33
42001;BME280;27689;48.390;10.856;2023-03-25T07:17:01;95682.94;;;8.21;82.53
42001;BME280;27689;48.390;10.856;2023-03-25T07:19:45;95677.50;;;8.05;81.99
42001;BME280;27689;48.390;10.856;2023-03-25T07:22:29;95675.63;;;7.88;82.84
42001;BME280;27689;48.390;10.856;2023-03-25T07:25:13;95678.38;;;7.86;83.79
42001;BME280;27689;48.390;10.856;2023-03-25T07:27:57;95693.34;;;7.84;83.08
42001;BME280;27689;48.390;10.856;2023-03-25T07:30:41;95688.38;;;7.91;84.31
42001;BME280;27689;48.390;10.856;2023-03-25T07:33:25;95689.06;;;7.93;83.82
42001;BME280;27689;48.390;10.856;2023-03-25T07:36:10;95694.00;;;7.96;83.87
42001;BME280;27689;48.390;10.856;2023-03-25T07:38:55;95687.69;;;7.98;84.25
42001;BME280;27689;48.390;10.856;2023-03-25T07:41:39;95683.00;;;8.02;83.76
42001;BME280;27689;48.390;10.856;2023-03-25T07:44:25;95679.88;;;7.98;83.38
42001;BME280;27689;48.390;10.856;2023-03-25T07:47:10;95691.63;;;8.02;84.02
42001;BME280;27689;48.390;10.856;2023-03-25T07:49:53;95684.34;;;8.16;83.84
42001;BME280;27689;48.390;10.856;2023-03-25T07:52:37;95690.34;;;8.26;82.83
42001;BME280;27689;48.390;10.856;2023-03-25T07:55:22;95684.00;;;8.38;82.35
42001;BME280;27689;48.390;10.856;2023-03-25T07:58:08;95679.13;;;8.53;81.71
42001;BME280;27689;48.390;10.856;2023-03-25T08:00:55;95675.56;;;8.54;81.54
42001;BME280;27689;48.390;10.856;2023-03-25T08:03:39;95686.69;;;8.56;80.91
42001;BME280;27689;48.390;10.856;2023-03-25T08:06:23;95668.06;;;8.68;78.93
42001;BME280;27689;48.390;10.856;2023-03-25T08:09:07;95666.19;;;8.78;80.18
42001;BME280;27689;48.390;10.856;2023-03-25T08:11:51;95669.13;;;8.93;79.02
42001;BME280;27689;48.390;10.856;2023-03-25T08:14:35;95675.06;;;9.13;78.90
42001;BME280;27689;48.390;10.856;2023-03-25T08:17:19;95673.19;;;9.23;78.27
42001;BME280;27689;48.390;10.856;2023-03-25T08:20:04;95677.22;;;9.00;76.38
42001;BME280;27689;48.390;10.856;2023-03-25T08:22:50;95681.06;;;8.78;78.17
42001;BME280;27689;48.390;10.856;2023-03-25T08:25:33;95682.94;;;8.86;79.21
42001;BME280;27689;48.390;10.856;2023-03-25T08:28:18;95671.75;;;8.75;79.37
42001;BME280;27689;48.390;10.856;2023-03-25T08:31:05;95688.38;;;8.74;78.84
42001;BME280;27689;48.390;10.856;2023-03-25T08:33:51;95681.25;;;8.67;80.08
42001;BME280;27689;48.390;10.856;2023-03-25T08:36:35;95674.78;;;8.71;80.38
42001;BME280;27689;48.390;10.856;2023-03-25T08:39:22;95680.44;;;8.66;80.63
42001;BME280;27689;48.390;10.856;2023-03-25T08:42:12;95689.16;;;8.47;81.11
42001;BME280;27689;48.390;10.856;2023-03-25T08:44:57;95676.59;;;8.61;81.58
42001;BME280;27689;48.390;10.856;2023-03-25T08:47:42;95680.69;;;8.73;81.19
42001;BME280;27689;48.390;10.856;2023-03-25T08:50:27;95679.13;;;8.80;79.58
42001;BME280;27689;48.390;10.856;2023-03-25T08:53:11;95669.19;;;8.83;80.14
42001;BME280;27689;48.390;10.856;2023-03-25T08:55:57;95672.06;;;9.08;79.90
42001;BME280;27689;48.390;10.856;2023-03-25T08:58:41;95672.75;;;9.45;79.43
42001;BME280;27689;48.390;10.856;2023-03-25T09:01:25;95687.44;;;9.64;77.05
42001;BME280;27689;48.390;10.856;2023-03-25T09:04:09;95680.44;;;9.29;77.48
42001;BME280;27689;48.390;10.856;2023-03-25T09:06:54;95690.50;;;9.24;77.62
42001;BME280;27689;48.390;10.856;2023-03-25T09:09:39;95676.41;;;9.35;77.18
42001;BME280;27689;48.390;10.856;2023-03-25T09:12:23;95680.88;;;9.42;77.16
42001;BME280;27689;48.390;10.856;2023-03-25T09:15:09;95686.69;;;9.36;77.56
42001;BME280;27689;48.390;10.856;2023-03-25T09:17:54;95675.50;;;9.26;76.64
42001;BME280;27689;48.390;10.856;2023-03-25T09:20:39;95678.34;;;9.33;76.60
42001;BME280;27689;48.390;10.856;2023-03-25T09:23:24;95671.91;;;9.27;77.46
42001;BME280;27689;48.390;10.856;2023-03-25T09:26:08;95676.63;;;9.24;77.77
42001;BME280;27689;48.390;10.856;2023-03-25T09:28:52;95675.88;;;9.31;78.38
42001;BME280;27689;48.390;10.856;2023-03-25T09:31:38;95675.22;;;9.47;78.02
42001;BME280;27689;48.390;10.856;2023-03-25T09:34:23;95669.22;;;9.37;77.42
42001;BME280;27689;48.390;10.856;2023-03-25T09:37:07;95673.72;;;9.44;77.49
42001;BME280;27689;48.390;10.856;2023-03-25T09:39:51;95677.69;;;9.31;77.69
42001;BME280;27689;48.390;10.856;2023-03-25T09:45:41;95675.66;;;9.42;76.65
42001;BME280;27689;48.390;10.856;2023-03-25T09:48:44;95661.22;;;9.38;77.28
42001;BME280;27689;48.390;10.856;2023-03-25T09:51:31;95654.91;;;9.67;78.22
42001;BME280;27689;48.390;10.856;2023-03-25T09:54:29;95659.84;;;9.70;77.78
42001;BME280;27689;48.390;10.856;2023-03-25T09:57:19;95648.25;;;9.46;78.47
42001;BME280;27689;48.390;10.856;2023-03-25T10:00:04;95654.88;;;9.59;78.62
42001;BME280;27689;48.390;10.856;2023-03-25T10:02:56;95639.44;;;9.73;78.99
42001;BME280;27689;48.390;10.856;2023-03-25T10:05:47;95650.44;;;9.77;78.00
42001;BME280;27689;48.390;10.856;2023-03-25T10:12:00;95640.97;;;9.84;75.08
42001;BME280;27689;48.390;10.856;2023-03-25T10:21:18;95635.81;;;9.92;73.24
42001;BME280;27689;48.390;10.856;2023-03-25T10:24:18;95642.88;;;10.00;73.49
42001;BME280;27689;48.390;10.856;2023-03-25T10:30:01;95608.66;;;10.19;71.83
42001;BME280;27689;48.390;10.856;2023-03-25T10:35:39;95597.13;;;10.96;69.35
42001;BME280;27689;48.390;10.856;2023-03-25T10:38:25;95594.50;;;11.04;67.89
42001;BME280;27689;48.390;10.856;2023-03-25T10:41:23;95598.28;;;11.10;67.62
42001;BME280;27689;48.390;10.856;2023-03-25T10:44:09;95607.31;;;11.40;68.06
42001;BME280;27689;48.390;10.856;2023-03-25T10:46:55;95606.78;;;11.69;66.77
42001;BME280;27689;48.390;10.856;2023-03-25T10:49:41;95603.19;;;11.61;65.14
42001;BME280;27689;48.390;10.856;2023-03-25T10:52:26;95591.22;;;11.43;65.78
42001;BME280;27689;48.390;10.856;2023-03-25T10:55:36;95590.91;;;11.46;66.13
42001;BME280;27689;48.390;10.856;2023-03-25T10:58:24;95584.03;;;11.37;66.24
42001;BME280;27689;48.390;10.856;2023-03-25T11:01:14;95574.03;;;11.56;65.28
42001;BME280;27689;48.390;10.856;2023-03-25T11:03:59;95593.38;;;11.39;67.15
42001;BME280;27689;48.390;10.856;2023-03-25T11:06:44;95601.53;;;11.04;71.83
42001;BME280;27689;48.390;10.856;2023-03-25T11:09:31;95590.59;;;10.42;78.75
42001;BME280;27689;48.390;10.856;2023-03-25T11:12:18;95588.94;;;10.41;81.43
42001;BME280;27689;48.390;10.856;2023-03-25T11:15:04;95581.69;;;10.27;81.09
42001;BME280;27689;48.390;10.856;2023-03-25T11:20:50;95564.84;;;10.29;80.30
42001;BME280;27689;48.390;10.856;2023-03-25T11:23:49;95566.88;;;10.09;78.64
42001;BME280;27689;48.390;10.856;2023-03-25T11:26:38;95552.66;;;10.12;77.30
42001;BME280;27689;48.390;10.856;2023-03-25T11:29:24;95564.69;;;9.97;77.33
42001;BME280;27689;48.390;10.856;2023-03-25T11:32:13;95554.19;;;9.88;78.75
42001;BME280;27689;48.390;10.856;2023-03-25T11:35:01;95564.81;;;9.87;78.89
42001;BME280;27689;48.390;10.856;2023-03-25T11:37:53;95574.66;;;9.93;79.40
42001;BME280;27689;48.390;10.856;2023-03-25T11:43:36;95561.47;;;10.37;76.04
42001;BME280;27689;48.390;10.856;2023-03-25T11:46:21;95551.03;;;10.61;74.52
42001;BME280;27689;48.390;10.856;2023-03-25T11:49:10;95549.28;;;10.78;71.78
42001;BME280;27689;48.390;10.856;2023-03-25T11:52:04;95541.28;;;11.12;70.90
42001;BME280;27689;48.390;10.856;2023-03-25T11:54:52;95538.94;;;10.84;69.79
42001;BME280;27689;48.390;10.856;2023-03-25T11:57:38;95537.31;;;10.91;71.58
42001;BME280;27689;48.390;10.856;2023-03-25T12:08:52;95538.63;;;11.04;67.19
42001;BME280;27689;48.390;10.856;2023-03-25T12:15:00;95505.88;;;11.24;66.59
42001;BME280;27689;48.390;10.856;2023-03-25T12:21:02;95498.34;;;11.92;64.36
42001;BME280;27689;48.390;10.856;2023-03-25T12:24:31;95500.72;;;12.10;61.32
42001;BME280;27689;48.390;10.856;2023-03-25T12:27:30;95488.94;;;12.37;61.22
42001;BME280;27689;48.390;10.856;2023-03-25T12:30:32;95493.63;;;12.50;60.00
42001;BME280;27689;48.390;10.856;2023-03-25T12:33:43;95493.50;;;12.66;59.72
42001;BME280;27689;48.390;10.856;2023-03-25T12:55:22;95513.72;;;12.04;59.66
42001;BME280;27689;48.390;10.856;2023-03-25T13:07:15;95517.06;;;11.73;61.78
42001;BME280;27689;48.390;10.856;2023-03-25T13:10:13;95511.03;;;11.64;61.21
42001;BME280;27689;48.390;10.856;2023-03-25T13:13:02;95517.03;;;11.89;60.34
42001;BME280;27689;48.390;10.856;2023-03-25T13:16:09;95498.88;;;12.19;58.44
42001;BME280;27689;48.390;10.856;2023-03-25T13:19:05;95508.38;;;12.28;57.75
42001;BME280;27689;48.390;10.856;2023-03-25T13:21:56;95511.19;;;12.18;57.79
42001;BME280;27689;48.390;10.856;2023-03-25T13:24:54;95511.41;;;12.09;56.83
42001;BME280;27689;48.390;10.856;2023-03-25T13:27:40;95498.31;;;12.00;57.18
42001;BME280;27689;48.390;10.856;2023-03-25T13:30:32;95498.59;;;12.14;55.95
42001;BME280;27689;48.390;10.856;2023-03-25T13:33:28;95505.00;;;12.11;55.81
42001;BME280;27689;48.390;10.856;2023-03-25T13:36:26;95505.34;;;12.08;56.17
42001;BME280;27689;48.390;10.856;2023-03-25T13:39:19;95514.72;;;12.33;55.91
42001;BME280;27689;48.390;10.856;2023-03-25T13:42:11;95496.34;;;12.33;54.39
42001;BME280;27689;48.390;10.856;2023-03-25T13:44:59;95495.16;;;12.67;54.77
42001;BME280;27689;48.390;10.856;2023-03-25T13:48:14;95492.63;;;12.96;52.70
42001;BME280;27689;48.390;10.856;2023-03-25T13:51:02;95491.13;;;12.56;53.32
42001;BME280;27689;48.390;10.856;2023-03-25T14:12:33;95489.56;;;12.08;61.20
42001;BME280;27689;48.390;10.856;2023-03-25T14:15:23;95492.47;;;12.21;59.26
42001;BME280;27689;48.390;10.856;2023-03-25T14:18:15;95490.63;;;11.99;58.97
42001;BME280;27689;48.390;10.856;2023-03-25T14:24:17;95523.22;;;11.33;63.96
42001;BME280;27689;48.390;10.856;2023-03-25T14:27:27;95527.50;;;11.18;68.76
42001;BME280;27689;48.390;10.856;2023-03-25T14:30:21;95523.72;;;11.20;67.89
42001;BME280;27689;48.390;10.856;2023-03-25T14:33:08;95523.69;;;11.28;66.29
42001;BME280;27689;48.390;10.856;2023-03-25T14:35:52;95520.28;;;11.36;64.31
42001;BME280;27689;48.390;10.856;2023-03-25T14:38:53;95512.19;;;11.62;63.93
42001;BME280;27689;48.390;10.856;2023-03-25T14:44:41;95520.50;;;11.74;62.35
42001;BME280;27689;48.390;10.856;2023-03-25T14:47:33;95519.06;;;11.71;61.91
42001;BME280;27689;48.390;10.856;2023-03-25T14:53:10;95519.25;;;11.45;62.84
42001;BME280;27689;48.390;10.856;2023-03-25T14:55:55;95521.06;;;11.45;62.90
42001;BME280;27689;48.390;10.856;2023-03-25T14:58:43;95515.31;;;11.49;64.72
42001;BME280;27689;48.390;10.856;2023-03-25T15:01:34;95500.25;;;11.51;64.17
42001;BME280;27689;48.390;10.856;2023-03-25T15:04:29;95509.72;;;11.60;63.55
42001;BME280;27689;48.390;10.856;2023-03-25T15:07:18;95505.94;;;11.71;62.93
42001;BME280;27689;48.390;10.856;2023-03-25T15:10:30;95518.28;;;11.54;63.52
42001;BME280;27689;48.390;10.856;2023-03-25T15:13:20;95530.75;;;11.52;63.76
42001;BME280;27689;48.390;10.856;2023-03-25T15:19:12;95540.75;;;10.92;72.93
42001;BME280;27689;48.390;10.856;2023-03-25T15:24:42;95540.41;;;10.63;78.33
42001;BME280;27689;48.390;10.856;2023-03-25T15:27:37;95528.44;;;10.52;82.91
42001;BME280;27689;48.390;10.856;2023-03-25T15:30:57;95513.34;;;10.54;82.27
42001;BME280;27689;48.390;10.856;2023-03-25T15:34:01;95509.09;;;10.45;81.42
42001;BME280;27689;48.390;10.856;2023-03-25T15:37:30;95508.78;;;10.48;80.75
42001;BME280;27689;48.390;10.856;2023-03-25T15:55:38;95502.69;;;10.39;80.02
42001;BME280;27689;48.390;10.856;2023-03-25T15:58:29;95508.09;;;10.30;81.52
42001;BME280;27689;48.390;10.856;2023-03-25T16:01:28;95511.34;;;10.23;81.13
42001;BME280;27689;48.390;10.856;2023-03-25T16:04:31;95507.41;;;10.28;81.25
42001;BME280;27689;48.390;10.856;2023-03-25T16:07:18;95526.72;;;10.18;82.16
42001;BME280;27689;48.390;10.856;2023-03-25T16:10:12;95549.03;;;10.39;82.60
42001;BME280;27689;48.390;10.856;2023-03-25T16:13:02;95587.34;;;10.14;82.82
42001;BME280;27689;48.390;10.856;2023-03-25T16:15:46;95611.25;;;9.41;89.14
42001;BME280;27689;48.390;10.856;2023-03-25T16:18:30;95593.16;;;9.04;92.20
42001;BME280;27689;48.390;10.856;2023-03-25T16:21:14;95577.25;;;8.98;93.62
42001;BME280;27689;48.390;10.856;2023-03-25T16:24:02;95563.13;;;9.08;91.19
42001;BME280;27689;48.390;10.856;2023-03-25T16:26:48;95550.56;;;9.04;92.65
42001;BME280;27689;48.390;10.856;2023-03-25T16:29:32;95560.53;;;9.08;91.84
42001;BME280;27689;48.390;10.856;2023-03-25T16:32:19;95550.22;;;9.07;92.22
42001;BME280;27689;48.390;10.856;2023-03-25T16:35:04;95541.28;;;8.92;93.88
42001;BME280;27689;48.390;10.856;2023-03-25T16:37:54;95550.41;;;8.88;95.60
42001;BME280;27689;48.390;10.856;2023-03-25T16:40:40;95549.50;;;8.97;94.86
42001;BME280;27689;48.390;10.856;2023-03-25T16:43:26;95545.69;;;8.91;95.59
42001;BME280;27689;48.390;10.856;2023-03-25T16:46:13;95550.22;;;9.07;93.07
42001;BME280;27689;48.390;10.856;2023-03-25T16:48:58;95551.56;;;9.11;92.65
42001;BME280;27689;48.390;10.856;2023-03-25T16:51:44;95560.38;;;9.10;92.91
42001;BME280;27689;48.390;10.856;2023-03-25T16:54:36;95557.41;;;9.05;92.10
42001;BME280;27689;48.390;10.856;2023-03-25T16:57:36;95566.66;;;8.99;92.21
42001;BME280;27689;48.390;10.856;2023-03-25T17:00:22;95567.34;;;9.01;92.32
42001;BME280;27689;48.390;10.856;2023-03-25T17:03:12;95570.53;;;9.13;88.33
42001;BME280;27689;48.390;10.856;2023-03-25T17:06:03;95579.88;;;9.15;85.12
42001;BME280;27689;48.390;10.856;2023-03-25T17:08:53;95579.03;;;9.15;83.13
42001;BME280;27689;48.390;10.856;2023-03-25T17:11:38;95577.84;;;9.09;82.65
42001;BME280;27689;48.390;10.856;2023-03-25T17:14:27;95578.91;;;9.16;82.46
42001;BME280;27689;48.390;10.856;2023-03-25T17:17:33;95575.22;;;9.09;83.21
42001;BME280;27689;48.390;10.856;2023-03-25T17:20:30;95580.25;;;9.03;84.42
42001;BME280;27689;48.390;10.856;2023-03-25T17:26:18;95582.09;;;9.10;86.60